createdAt,value
2017-07-18T00:01:45.834Z,18.10
2017-07-18T00:04:14.101Z,18.10
2017-07-18T00:06:42.395Z,18.10
2017-07-18T00:09:10.648Z,18.10
2017-07-18T00:11:38.904Z,18.00
2017-07-18T00:14:07.199Z,17.90
2017-07-18T00:16:35.476Z,17.90
2017-07-18T00:19:03.774Z,17.90
2017-07-18T00:21:32.058Z,17.80
2017-07-18T00:24:00.351Z,17.70
2017-07-18T00:26:28.646Z,17.70
2017-07-18T00:28:56.904Z,17.70
2017-07-18T00:31:25.200Z,17.70
2017-07-18T00:33:53.472Z,17.60
2017-07-18T00:36:21.819Z,17.60
2017-07-18T00:38:50.111Z,17.60
2017-07-18T00:41:18.382Z,17.60
2017-07-18T00:43:46.691Z,17.70
2017-07-18T00:46:14.960Z,17.60
2017-07-18T00:48:43.226Z,17.60
2017-07-18T00:51:11.537Z,17.60
2017-07-18T00:53:39.825Z,17.70
2017-07-18T00:56:08.096Z,17.60
2017-07-18T00:58:36.399Z,17.60
2017-07-18T01:01:04.673Z,17.50
2017-07-18T01:03:32.990Z,17.50
2017-07-18T01:06:01.251Z,17.50
2017-07-18T01:08:29.514Z,17.50
2017-07-18T01:10:57.808Z,17.50
2017-07-18T01:13:26.071Z,17.50
2017-07-18T01:15:54.376Z,17.50
2017-07-18T01:18:22.641Z,17.40
2017-07-18T01:20:50.913Z,17.40
2017-07-18T01:23:19.221Z,17.40
2017-07-18T01:25:47.519Z,17.40
2017-07-18T01:28:15.837Z,17.40
2017-07-18T01:30:44.097Z,17.40
2017-07-18T01:33:12.389Z,17.30
2017-07-18T01:35:40.659Z,17.30
2017-07-18T01:38:08.913Z,17.30
2017-07-18T01:40:37.204Z,17.30
2017-07-18T01:43:05.495Z,17.30
2017-07-18T01:45:33.789Z,17.30
2017-07-18T01:48:02.093Z,17.30
2017-07-18T01:50:30.360Z,17.30
2017-07-18T01:52:58.623Z,17.30
2017-07-18T01:55:26.911Z,17.30
2017-07-18T01:57:55.186Z,17.30
2017-07-18T02:00:23.481Z,17.30
2017-07-18T02:02:51.753Z,17.30
2017-07-18T02:05:20.035Z,17.30
2017-07-18T02:07:48.340Z,17.30
2017-07-18T02:10:16.617Z,17.30
2017-07-18T02:12:44.912Z,17.20
2017-07-18T02:15:13.186Z,17.20
2017-07-18T02:17:41.498Z,17.20
2017-07-18T02:20:09.756Z,17.10
2017-07-18T02:22:38.024Z,17.10
2017-07-18T02:25:06.324Z,17.10
2017-07-18T02:27:34.581Z,17.00
2017-07-18T02:30:02.867Z,17.00
2017-07-18T02:32:31.156Z,17.00
2017-07-18T02:34:59.421Z,16.90
2017-07-18T02:37:27.705Z,17.00
2017-07-18T02:39:55.960Z,17.00
2017-07-18T02:42:24.253Z,17.00
2017-07-18T02:44:52.536Z,16.90
2017-07-18T02:47:20.835Z,17.00
2017-07-18T02:49:49.131Z,17.00
2017-07-18T02:52:17.387Z,17.00
2017-07-18T02:54:45.686Z,17.00
2017-07-18T02:57:13.955Z,16.90
2017-07-18T02:59:42.221Z,16.90
2017-07-18T03:02:10.525Z,16.90
2017-07-18T03:04:38.812Z,16.90
2017-07-18T03:07:07.121Z,16.90
2017-07-18T03:09:35.385Z,16.90
2017-07-18T03:12:03.676Z,16.90
2017-07-18T03:14:31.972Z,16.80
2017-07-18T03:17:00.279Z,16.80
2017-07-18T03:19:28.565Z,16.70
2017-07-18T03:21:56.827Z,16.70
2017-07-18T03:24:34.981Z,16.70
2017-07-18T03:27:03.248Z,16.70
2017-07-18T03:29:31.536Z,16.70
2017-07-18T03:31:59.820Z,16.70
2017-07-18T03:34:28.113Z,16.70
2017-07-18T03:36:56.372Z,16.70
2017-07-18T03:39:24.660Z,16.60
2017-07-18T03:41:52.939Z,16.60
2017-07-18T03:44:21.198Z,16.60
2017-07-18T03:46:49.480Z,16.60
2017-07-18T03:49:17.743Z,16.60
2017-07-18T03:51:46.064Z,16.60
2017-07-18T03:54:14.326Z,16.50
2017-07-18T03:56:42.589Z,16.50
2017-07-18T03:59:10.884Z,16.50
2017-07-18T04:01:39.141Z,16.50
2017-07-18T04:04:07.400Z,16.50
2017-07-18T04:06:35.693Z,16.60
2017-07-18T04:09:03.959Z,16.60
2017-07-18T04:11:32.255Z,16.60
2017-07-18T04:14:00.517Z,16.60
2017-07-18T04:16:28.786Z,16.50
2017-07-18T04:18:57.096Z,16.60
2017-07-18T04:21:25.362Z,16.50
2017-07-18T04:23:53.656Z,16.60
2017-07-18T04:26:21.911Z,16.60
2017-07-18T04:28:50.217Z,16.50
2017-07-18T04:31:18.506Z,16.50
2017-07-18T04:33:46.776Z,16.60
2017-07-18T04:36:15.062Z,16.60
2017-07-18T04:38:43.340Z,16.60
2017-07-18T04:41:11.608Z,16.60
2017-07-18T04:43:39.897Z,16.60
2017-07-18T04:46:08.184Z,16.50
2017-07-18T04:48:36.492Z,16.50
2017-07-18T04:51:04.750Z,16.60
2017-07-18T04:53:33.014Z,16.60
2017-07-18T04:56:01.296Z,16.50
2017-07-18T04:58:28.789Z,16.50
2017-07-18T05:00:57.085Z,16.60
2017-07-18T05:03:25.354Z,16.70
2017-07-18T05:05:53.614Z,16.80
2017-07-18T05:08:21.909Z,16.90
2017-07-18T05:10:50.184Z,17.10
2017-07-18T05:13:18.452Z,17.10
2017-07-18T05:15:46.764Z,17.10
2017-07-18T05:18:15.396Z,17.00
2017-07-18T05:20:43.657Z,17.00
2017-07-18T05:23:11.916Z,17.00
2017-07-18T05:25:40.208Z,17.10
2017-07-18T05:28:08.464Z,17.20
2017-07-18T05:30:36.760Z,17.20
2017-07-18T05:33:05.057Z,17.20
2017-07-18T05:35:33.328Z,17.20
2017-07-18T05:38:00.867Z,17.20
2017-07-18T05:40:29.160Z,17.20
2017-07-18T05:42:57.437Z,17.30
2017-07-18T05:45:25.733Z,17.30
2017-07-18T05:47:54.009Z,17.40
2017-07-18T05:50:22.289Z,17.40
2017-07-18T05:52:50.614Z,17.50
2017-07-18T05:55:18.893Z,17.50
2017-07-18T05:57:47.161Z,17.60
2017-07-18T06:00:14.707Z,17.60
2017-07-18T06:02:42.980Z,17.60
2017-07-18T06:05:11.244Z,17.60
2017-07-18T06:07:39.564Z,17.80
2017-07-18T06:10:07.832Z,18.00
2017-07-18T06:12:36.094Z,18.00
2017-07-18T06:15:03.629Z,18.00
2017-07-18T06:17:31.892Z,18.00
2017-07-18T06:20:00.162Z,18.10
2017-07-18T06:22:28.460Z,18.20
2017-07-18T06:24:56.738Z,18.20
2017-07-18T06:27:25.016Z,18.20
2017-07-18T06:29:53.300Z,18.30
2017-07-18T06:32:21.561Z,18.30
2017-07-18T06:34:49.869Z,18.40
2017-07-18T06:37:18.123Z,18.50
2017-07-18T06:39:46.415Z,18.60
2017-07-18T06:42:14.721Z,18.60
2017-07-18T06:44:42.995Z,18.70
2017-07-18T06:47:11.270Z,18.70
2017-07-18T06:49:39.591Z,18.80
2017-07-18T06:52:07.861Z,18.90
2017-07-18T06:54:36.152Z,19.10
2017-07-18T06:57:04.407Z,19.20
2017-07-18T06:59:31.932Z,19.20
2017-07-18T07:02:00.195Z,19.10
2017-07-18T07:04:28.480Z,19.10
2017-07-18T07:06:56.743Z,19.20
2017-07-18T07:09:25.020Z,19.40
2017-07-18T07:11:53.293Z,19.30
2017-07-18T07:14:21.590Z,19.70
2017-07-18T07:16:49.857Z,19.60
2017-07-18T07:19:18.119Z,19.60
2017-07-18T07:21:46.418Z,19.70
2017-07-18T07:24:14.703Z,19.70
2017-07-18T07:26:42.977Z,19.70
2017-07-18T07:29:11.281Z,20.10
2017-07-18T07:31:39.556Z,20.30
2017-07-18T07:34:07.828Z,20.30
2017-07-18T07:36:36.151Z,20.20
2017-07-18T07:39:04.409Z,20.40
2017-07-18T07:41:32.688Z,20.70
2017-07-18T07:44:00.948Z,20.80
2017-07-18T07:46:29.250Z,20.80
2017-07-18T07:48:57.503Z,20.70
2017-07-18T07:51:25.784Z,20.80
2017-07-18T07:53:54.044Z,20.90
2017-07-18T07:56:22.339Z,21.00
2017-07-18T07:58:50.623Z,21.10
2017-07-18T08:01:18.889Z,21.30
2017-07-18T08:03:47.171Z,21.60
2017-07-18T08:06:15.436Z,21.60
2017-07-18T08:08:43.715Z,21.60
2017-07-18T08:11:11.976Z,21.60
2017-07-18T08:13:40.258Z,21.60
2017-07-18T08:16:08.518Z,21.80
2017-07-18T08:18:36.851Z,21.80
2017-07-18T08:21:05.112Z,22.10
2017-07-18T08:23:33.410Z,22.00
2017-07-18T08:26:01.666Z,22.10
2017-07-18T08:28:29.918Z,22.10
2017-07-18T08:30:58.237Z,22.10
2017-07-18T08:33:26.516Z,22.40
2017-07-18T08:35:54.016Z,22.40
2017-07-18T08:38:22.322Z,22.60
2017-07-18T08:40:50.589Z,22.70
2017-07-18T08:43:18.849Z,22.70
2017-07-18T08:45:46.409Z,22.70
2017-07-18T08:48:14.664Z,22.80
2017-07-18T08:50:42.960Z,23.00
2017-07-18T08:53:11.233Z,23.20
2017-07-18T08:55:39.530Z,23.10
2017-07-18T08:58:07.785Z,23.20
2017-07-18T09:00:36.072Z,23.30
2017-07-18T09:03:04.326Z,23.30
2017-07-18T09:05:32.625Z,23.50
2017-07-18T09:08:00.884Z,23.60
2017-07-18T09:10:29.147Z,23.60
2017-07-18T09:12:57.497Z,23.80
2017-07-18T09:15:25.759Z,23.80
2017-07-18T09:17:54.048Z,23.90
2017-07-18T09:20:22.298Z,24.00
2017-07-18T09:22:50.556Z,24.10
2017-07-18T09:25:18.838Z,24.00
2017-07-18T09:27:47.093Z,24.00
2017-07-18T09:30:15.391Z,24.10
2017-07-18T09:32:43.653Z,24.20
2017-07-18T09:35:11.920Z,24.20
2017-07-18T09:37:40.213Z,24.30
2017-07-18T09:40:08.470Z,24.40
2017-07-18T09:42:36.756Z,24.60
2017-07-18T09:45:05.030Z,24.70
2017-07-18T09:47:33.323Z,24.70
2017-07-18T09:50:01.614Z,24.90
2017-07-18T09:52:29.916Z,24.90
2017-07-18T09:54:58.173Z,25.00
2017-07-18T09:57:26.442Z,25.10
2017-07-18T09:59:54.725Z,25.20
2017-07-18T10:02:23.022Z,25.20
2017-07-18T10:04:51.277Z,25.30
2017-07-18T10:07:19.538Z,25.40
2017-07-18T10:09:47.823Z,25.40
2017-07-18T10:12:16.082Z,25.50
2017-07-18T10:14:44.355Z,25.60
2017-07-18T10:17:12.643Z,25.60
2017-07-18T10:19:40.913Z,25.90
2017-07-18T10:22:09.208Z,25.80
2017-07-18T10:24:37.475Z,25.90
2017-07-18T10:27:05.741Z,25.90
2017-07-18T10:29:34.054Z,25.90
2017-07-18T10:32:02.319Z,26.00
2017-07-18T10:34:30.601Z,26.00
2017-07-18T10:36:58.869Z,26.00
2017-07-18T10:39:27.152Z,26.10
2017-07-18T10:41:55.440Z,26.20
2017-07-18T10:44:23.712Z,26.40
2017-07-18T10:46:52.000Z,26.40
2017-07-18T10:49:20.299Z,26.40
2017-07-18T10:51:48.555Z,26.40
2017-07-18T10:54:16.073Z,26.40
2017-07-18T10:56:44.341Z,26.40
2017-07-18T10:59:12.636Z,26.50
2017-07-18T11:01:40.891Z,26.60
2017-07-18T11:04:09.153Z,26.70
2017-07-18T11:06:37.450Z,27.00
2017-07-18T11:09:05.716Z,27.00
2017-07-18T11:11:34.003Z,26.90
2017-07-18T11:14:02.263Z,26.80
2017-07-18T11:16:30.571Z,26.90
2017-07-18T11:18:58.844Z,26.90
2017-07-18T11:21:27.108Z,26.80
2017-07-18T11:23:55.404Z,26.80
2017-07-18T11:26:23.680Z,27.00
2017-07-18T11:28:51.980Z,27.00
2017-07-18T11:31:20.258Z,27.00
2017-07-18T11:33:48.522Z,27.00
2017-07-18T11:36:16.820Z,27.10
2017-07-18T11:38:45.089Z,27.20
2017-07-18T11:41:12.633Z,27.20
2017-07-18T11:43:40.911Z,27.40
2017-07-18T11:46:09.169Z,27.50
2017-07-18T11:48:37.456Z,27.60
2017-07-18T11:51:05.719Z,27.40
2017-07-18T11:53:34.008Z,27.40
2017-07-18T11:56:02.278Z,27.40
2017-07-18T11:58:30.565Z,27.50
2017-07-18T12:00:58.834Z,27.60
2017-07-18T12:03:27.120Z,27.60
2017-07-18T12:05:55.384Z,27.70
2017-07-18T12:08:23.655Z,27.80
2017-07-18T12:10:51.937Z,27.90
2017-07-18T12:13:20.192Z,28.00
2017-07-18T12:15:48.471Z,28.00
2017-07-18T12:18:28.552Z,28.00
2017-07-18T12:20:56.841Z,28.10
2017-07-18T12:23:25.095Z,28.10
2017-07-18T12:25:53.353Z,28.20
2017-07-18T12:28:21.660Z,28.00
2017-07-18T12:30:49.927Z,28.10
2017-07-18T12:33:18.177Z,28.00
2017-07-18T12:35:46.475Z,28.00
2017-07-18T12:38:14.766Z,28.10
2017-07-18T12:40:43.022Z,28.20
2017-07-18T12:43:11.291Z,28.20
2017-07-18T12:45:39.573Z,28.20
2017-07-18T12:48:07.852Z,28.20
2017-07-18T12:50:36.144Z,28.20
2017-07-18T12:53:04.394Z,28.20
2017-07-18T12:55:32.661Z,28.20
2017-07-18T12:58:00.951Z,28.30
2017-07-18T13:00:29.218Z,28.40
2017-07-18T13:02:57.483Z,28.40
2017-07-18T13:05:25.765Z,28.30
2017-07-18T13:07:54.024Z,28.40
2017-07-18T13:10:22.319Z,28.50
2017-07-18T13:12:50.588Z,28.80
2017-07-18T13:15:18.868Z,28.90
2017-07-18T13:17:47.164Z,29.00
2017-07-18T13:20:15.416Z,28.80
2017-07-18T13:22:43.679Z,28.80
2017-07-18T13:25:11.198Z,28.70
2017-07-18T13:27:39.491Z,29.00
2017-07-18T13:30:07.776Z,29.00
2017-07-18T13:32:36.035Z,29.10
2017-07-18T13:35:04.291Z,29.00
2017-07-18T13:37:32.607Z,29.10
2017-07-18T13:40:00.881Z,29.00
2017-07-18T13:42:29.190Z,29.00
2017-07-18T13:44:57.451Z,29.00
2017-07-18T13:47:25.748Z,29.10
2017-07-18T13:49:54.046Z,28.80
2017-07-18T13:52:22.312Z,28.70
2017-07-18T13:54:50.567Z,28.70
2017-07-18T13:57:18.864Z,28.60
2017-07-18T13:59:47.156Z,28.40
2017-07-18T14:02:15.410Z,28.40
2017-07-18T14:04:43.705Z,28.40
2017-07-18T14:07:11.970Z,28.40
2017-07-18T14:09:40.261Z,28.30
2017-07-18T14:12:08.543Z,28.40
2017-07-18T14:14:36.811Z,28.40
2017-07-18T14:17:05.100Z,28.40
2017-07-18T14:19:33.364Z,28.20
2017-07-18T14:22:01.701Z,28.10
2017-07-18T14:24:29.960Z,28.20
2017-07-18T14:26:58.234Z,28.30
2017-07-18T14:29:25.757Z,28.30
2017-07-18T14:31:54.018Z,28.80
2017-07-18T14:34:22.312Z,28.90
2017-07-18T14:36:50.567Z,29.00
2017-07-18T14:39:18.832Z,29.10
2017-07-18T14:41:47.123Z,29.10
2017-07-18T14:44:15.384Z,29.00
2017-07-18T14:46:43.669Z,28.90
2017-07-18T14:49:11.963Z,28.90
2017-07-18T14:51:40.229Z,28.90
2017-07-18T14:54:08.515Z,28.80
2017-07-18T14:56:36.774Z,29.10
2017-07-18T14:59:05.074Z,29.10
2017-07-18T15:01:33.363Z,29.20
2017-07-18T15:04:01.632Z,29.10
2017-07-18T15:06:29.929Z,29.20
2017-07-18T15:08:58.189Z,29.30
2017-07-18T15:11:26.444Z,29.30
2017-07-18T15:13:54.738Z,29.30
2017-07-18T15:16:22.994Z,29.40
2017-07-18T15:18:51.289Z,29.40
2017-07-18T15:21:19.547Z,29.50
2017-07-18T15:23:48.806Z,29.40
2017-07-18T15:26:17.100Z,29.40
2017-07-18T15:28:45.365Z,29.30
2017-07-18T15:31:13.660Z,29.20
2017-07-18T15:33:41.919Z,29.30
2017-07-18T15:36:10.181Z,29.20
2017-07-18T15:38:38.484Z,29.10
2017-07-18T15:41:06.744Z,29.00
2017-07-18T15:43:35.011Z,29.00
2017-07-18T15:46:02.547Z,29.00
2017-07-18T15:48:30.812Z,29.10
2017-07-18T15:50:59.070Z,29.00
2017-07-18T15:53:27.360Z,28.90
2017-07-18T15:55:55.649Z,28.90
2017-07-18T15:58:23.941Z,28.80
2017-07-18T16:00:52.197Z,28.80
2017-07-18T16:03:20.492Z,28.80
2017-07-18T16:05:48.735Z,28.80
2017-07-18T16:08:16.991Z,28.80
2017-07-18T16:10:45.276Z,28.70
2017-07-18T16:13:13.534Z,28.80
2017-07-18T16:15:41.051Z,28.70
2017-07-18T16:18:09.330Z,28.80
2017-07-18T16:20:37.617Z,28.70
2017-07-18T16:23:05.904Z,28.70
2017-07-18T16:25:34.166Z,28.80
2017-07-18T16:28:02.431Z,28.70
2017-07-18T16:30:30.717Z,28.70
2017-07-18T16:32:58.981Z,28.60
2017-07-18T16:35:27.267Z,28.50
2017-07-18T16:37:55.526Z,28.50
2017-07-18T16:40:23.821Z,28.50
2017-07-18T16:42:52.084Z,28.50
2017-07-18T16:45:20.388Z,28.40
2017-07-18T16:47:48.664Z,28.60
2017-07-18T16:50:16.163Z,28.50
2017-07-18T16:52:44.448Z,28.40
2017-07-18T16:55:12.735Z,28.30
2017-07-18T16:57:40.999Z,28.30
2017-07-18T17:00:09.295Z,28.20
2017-07-18T17:02:37.560Z,28.10
2017-07-18T17:05:05.824Z,28.10
2017-07-18T17:07:34.115Z,28.10
2017-07-18T17:10:01.612Z,28.10
2017-07-18T17:12:29.940Z,28.00
2017-07-18T17:14:57.437Z,28.00
2017-07-18T17:17:25.699Z,27.90
2017-07-18T17:19:54.007Z,27.90
2017-07-18T17:22:22.281Z,27.90
2017-07-18T17:24:50.593Z,27.80
2017-07-18T17:27:18.859Z,27.60
2017-07-18T17:29:47.132Z,27.60
2017-07-18T17:32:15.425Z,27.70
2017-07-18T17:34:43.692Z,27.60
2017-07-18T17:37:11.976Z,27.50
2017-07-18T17:39:40.244Z,27.50
2017-07-18T17:42:08.546Z,27.40
2017-07-18T17:44:36.807Z,27.30
2017-07-18T17:47:05.100Z,27.30
2017-07-18T17:49:33.360Z,27.30
2017-07-18T17:52:01.651Z,27.30
2017-07-18T17:54:29.907Z,27.30
2017-07-18T17:56:58.199Z,27.20
2017-07-18T17:59:26.472Z,27.00
2017-07-18T18:01:54.769Z,27.00
2017-07-18T18:04:23.050Z,27.10
2017-07-18T18:06:51.352Z,27.00
2017-07-18T18:09:19.630Z,26.90
2017-07-18T18:11:47.876Z,26.80
2017-07-18T18:14:16.176Z,26.70
2017-07-18T18:16:43.664Z,26.70
2017-07-18T18:19:11.957Z,26.60
2017-07-18T18:21:40.217Z,26.60
2017-07-18T18:24:08.500Z,26.60
2017-07-18T18:26:36.763Z,26.50
2017-07-18T18:29:05.074Z,26.50
2017-07-18T18:31:33.341Z,26.40
2017-07-18T18:34:01.599Z,26.30
2017-07-18T18:36:29.884Z,26.20
2017-07-18T18:38:58.168Z,26.30
2017-07-18T18:41:26.445Z,26.20
2017-07-18T18:43:54.719Z,26.10
2017-07-18T18:46:23.020Z,26.00
2017-07-18T18:48:51.332Z,25.90
2017-07-18T18:51:18.836Z,25.90
2017-07-18T18:53:47.095Z,25.80
2017-07-18T18:56:15.418Z,25.80
2017-07-18T18:58:43.688Z,25.80
2017-07-18T19:01:11.985Z,25.70
2017-07-18T19:03:40.270Z,25.60
2017-07-18T19:06:08.551Z,25.60
2017-07-18T19:08:36.821Z,25.50
2017-07-18T19:11:06.167Z,25.50
2017-07-18T19:13:34.434Z,25.50
2017-07-18T19:16:02.695Z,25.40
2017-07-18T19:18:30.993Z,25.30
2017-07-18T19:20:59.262Z,25.30
2017-07-18T19:23:27.545Z,25.20
2017-07-18T19:25:55.827Z,25.10
2017-07-18T19:28:24.098Z,25.10
2017-07-18T19:30:52.396Z,25.10
2017-07-18T19:33:20.664Z,25.10
2017-07-18T19:35:48.952Z,25.00
2017-07-18T19:38:17.234Z,24.90
2017-07-18T19:40:45.484Z,24.90
2017-07-18T19:43:13.775Z,24.80
2017-07-18T19:45:42.045Z,24.70
2017-07-18T19:48:10.343Z,24.70
2017-07-18T19:50:38.760Z,24.60
2017-07-18T19:53:07.067Z,24.50
2017-07-18T19:55:35.333Z,24.40
2017-07-18T19:58:03.619Z,24.30
2017-07-18T20:00:31.884Z,24.20
2017-07-18T20:03:00.178Z,24.20
2017-07-18T20:05:28.468Z,24.10
2017-07-18T20:07:56.722Z,24.00
2017-07-18T20:10:25.017Z,23.90
2017-07-18T20:12:53.301Z,23.90
2017-07-18T20:15:21.592Z,23.90
2017-07-18T20:17:49.853Z,23.90
2017-07-18T20:20:18.156Z,23.70
2017-07-18T20:22:46.448Z,23.70
2017-07-18T20:25:14.720Z,23.80
2017-07-18T20:27:42.239Z,23.70
2017-07-18T20:30:10.500Z,23.60
2017-07-18T20:32:39.096Z,23.70
2017-07-18T20:35:07.368Z,23.60
2017-07-18T20:37:35.628Z,23.60
2017-07-18T20:40:03.904Z,23.60
2017-07-18T20:42:32.177Z,23.60
2017-07-18T20:45:00.462Z,23.50
2017-07-18T20:47:27.953Z,23.50
2017-07-18T20:49:56.255Z,23.50
2017-07-18T20:52:24.531Z,23.50
2017-07-18T20:54:52.795Z,23.40
2017-07-18T20:57:21.083Z,23.40
2017-07-18T20:59:49.350Z,23.40
2017-07-18T21:02:17.609Z,23.40
2017-07-18T21:04:45.909Z,23.40
2017-07-18T21:07:14.183Z,23.30
2017-07-18T21:09:42.465Z,23.20
2017-07-18T21:12:10.723Z,23.20
2017-07-18T21:14:39.002Z,23.20
2017-07-18T21:17:07.256Z,23.20
2017-07-18T21:19:35.548Z,23.20
2017-07-18T21:22:03.812Z,23.10
2017-07-18T21:24:32.093Z,23.10
2017-07-18T21:27:00.386Z,23.10
2017-07-18T21:29:28.684Z,23.00
2017-07-18T21:31:56.968Z,23.00
2017-07-18T21:34:25.235Z,23.00
2017-07-18T21:36:53.523Z,23.00
2017-07-18T21:39:21.785Z,23.00
2017-07-18T21:41:50.077Z,22.90
2017-07-18T21:44:18.349Z,22.90
2017-07-18T21:46:46.668Z,22.80
2017-07-18T21:49:14.927Z,22.90
2017-07-18T21:51:43.184Z,22.80
2017-07-18T21:54:11.480Z,22.80
2017-07-18T21:56:39.742Z,22.70
2017-07-18T21:59:08.023Z,22.70
2017-07-18T22:01:36.277Z,22.70
2017-07-18T22:04:04.560Z,22.70
2017-07-18T22:06:32.815Z,22.60
2017-07-18T22:09:01.069Z,22.60
2017-07-18T22:11:29.356Z,22.70
2017-07-18T22:13:57.625Z,22.50
2017-07-18T22:16:25.909Z,22.60
2017-07-18T22:18:54.163Z,22.50
2017-07-18T22:21:22.644Z,22.60
2017-07-18T22:23:50.904Z,22.50
2017-07-18T22:26:19.167Z,22.40
2017-07-18T22:28:47.448Z,22.40
2017-07-18T22:31:15.712Z,22.40
2017-07-18T22:33:44.920Z,22.30
2017-07-18T22:36:13.175Z,22.40
2017-07-18T22:38:41.447Z,22.50
2017-07-18T22:41:09.743Z,22.50
2017-07-18T22:43:37.991Z,22.60
2017-07-18T22:46:05.477Z,22.60
2017-07-18T22:48:33.766Z,22.50
2017-07-18T22:51:02.019Z,22.50
2017-07-18T22:53:30.308Z,22.40
2017-07-18T22:55:57.795Z,22.40
2017-07-18T22:58:26.087Z,22.40
2017-07-18T23:00:54.350Z,22.30
2017-07-18T23:03:22.661Z,22.30
2017-07-18T23:05:50.924Z,22.40
2017-07-18T23:08:19.185Z,22.30
2017-07-18T23:10:47.508Z,22.30
2017-07-18T23:13:15.759Z,22.30
2017-07-18T23:15:44.020Z,22.40
2017-07-18T23:18:12.302Z,22.40
2017-07-18T23:20:39.806Z,22.30
2017-07-18T23:23:08.096Z,22.40
2017-07-18T23:25:36.363Z,22.30
2017-07-18T23:28:04.651Z,22.30
2017-07-18T23:30:32.905Z,22.20
2017-07-18T23:33:01.179Z,22.10
2017-07-18T23:35:29.475Z,22.20
2017-07-18T23:37:57.743Z,22.20
2017-07-18T23:40:26.032Z,22.30
2017-07-18T23:42:55.309Z,22.30
2017-07-18T23:45:23.591Z,22.20
2017-07-18T23:47:51.896Z,22.20
2017-07-18T23:50:20.148Z,22.30
2017-07-18T23:52:48.448Z,22.20
2017-07-18T23:55:16.708Z,22.20
2017-07-18T23:57:44.979Z,22.10
